sensor_id;sensor_type;location;lat;lon;timestamp;P1;durP1;ratioP1;P2;durP2;ratioP2
15831;SDS011;8016;49.928;9.372;2024-01-27T00:01:38;8.80;;;2.87;;
15831;SDS011;8016;49.928;9.372;2024-01-27T00:04:04;5.47;;;2.43;;
15831;SDS011;8016;49.928;9.372;2024-01-27T00:06:29;7.17;;;2.43;;
15831;SDS011;8016;49.928;9.372;2024-01-27T00:08:55;6.47;;;2.33;;
15831;SDS011;8016;49.928;9.372;2024-01-27T00:11:21;6.67;;;2.33;;
15831;SDS011;8016;49.928;9.372;2024-01-27T00:13:49;8.30;;;2.53;;
15831;SDS011;8016;49.928;9.372;2024-01-27T00:16:15;8.90;;;3.00;;
15831;SDS011;8016;49.928;9.372;2024-01-27T00:18:41;7.23;;;2.43;;
15831;SDS011;8016;49.928;9.372;2024-01-27T00:21:07;7.30;;;3.15;;
15831;SDS011;8016;49.928;9.372;2024-01-27T00:23:33;7.97;;;2.47;;
15831;SDS011;8016;49.928;9.372;2024-01-27T00:26:02;7.57;;;2.73;;
15831;SDS011;8016;49.928;9.372;2024-01-27T00:28:29;7.37;;;2.90;;
15831;SDS011;8016;49.928;9.372;2024-01-27T00:30:54;6.53;;;2.23;;
15831;SDS011;8016;49.928;9.372;2024-01-27T00:33:21;10.40;;;3.13;;
15831;SDS011;8016;49.928;9.372;2024-01-27T00:35:47;5.97;;;2.73;;
15831;SDS011;8016;49.928;9.372;2024-01-27T00:38:13;8.07;;;3.17;;
15831;SDS011;8016;49.928;9.372;2024-01-27T00:40:39;9.00;;;2.77;;
15831;SDS011;8016;49.928;9.372;2024-01-27T00:43:05;10.03;;;3.27;;
15831;SDS011;8016;49.928;9.372;2024-01-27T00:45:31;4.83;;;2.47;;
15831;SDS011;8016;49.928;9.372;2024-01-27T00:47:57;11.27;;;3.30;;
15831;SDS011;8016;49.928;9.372;2024-01-27T00:50:23;7.00;;;2.60;;
15831;SDS011;8016;49.928;9.372;2024-01-27T00:52:49;6.10;;;2.93;;
15831;SDS011;8016;49.928;9.372;2024-01-27T00:55:15;4.70;;;2.27;;
15831;SDS011;8016;49.928;9.372;2024-01-27T00:57:42;8.00;;;2.57;;
15831;SDS011;8016;49.928;9.372;2024-01-27T01:00:08;5.83;;;2.33;;
15831;SDS011;8016;49.928;9.372;2024-01-27T01:02:35;7.47;;;2.67;;
15831;SDS011;8016;49.928;9.372;2024-01-27T01:05:02;6.90;;;2.30;;
15831;SDS011;8016;49.928;9.372;2024-01-27T01:07:29;5.40;;;2.77;;
15831;SDS011;8016;49.928;9.372;2024-01-27T01:09:55;7.70;;;2.73;;
15831;SDS011;8016;49.928;9.372;2024-01-27T01:12:21;13.97;;;3.57;;
15831;SDS011;8016;49.928;9.372;2024-01-27T01:14:47;9.43;;;2.90;;
15831;SDS011;8016;49.928;9.372;2024-01-27T01:17:13;10.57;;;3.03;;
15831;SDS011;8016;49.928;9.372;2024-01-27T01:19:40;4.63;;;2.23;;
15831;SDS011;8016;49.928;9.372;2024-01-27T01:22:06;10.17;;;2.17;;
15831;SDS011;8016;49.928;9.372;2024-01-27T01:24:32;7.83;;;2.67;;
15831;SDS011;8016;49.928;9.372;2024-01-27T01:26:59;5.37;;;2.17;;
15831;SDS011;8016;49.928;9.372;2024-01-27T01:29:25;10.57;;;2.37;;
15831;SDS011;8016;49.928;9.372;2024-01-27T01:31:51;7.27;;;2.37;;
15831;SDS011;8016;49.928;9.372;2024-01-27T01:34:17;3.77;;;2.27;;
15831;SDS011;8016;49.928;9.372;2024-01-27T01:36:43;8.98;;;2.90;;
15831;SDS011;8016;49.928;9.372;2024-01-27T01:39:10;9.40;;;2.50;;
15831;SDS011;8016;49.928;9.372;2024-01-27T01:41:38;6.57;;;3.23;;
15831;SDS011;8016;49.928;9.372;2024-01-27T01:44:04;8.83;;;2.93;;
15831;SDS011;8016;49.928;9.372;2024-01-27T01:46:30;10.27;;;2.97;;
15831;SDS011;8016;49.928;9.372;2024-01-27T01:48:56;11.43;;;3.07;;
15831;SDS011;8016;49.928;9.372;2024-01-27T01:51:22;7.97;;;2.70;;
15831;SDS011;8016;49.928;9.372;2024-01-27T01:53:48;7.63;;;2.50;;
15831;SDS011;8016;49.928;9.372;2024-01-27T01:56:17;4.43;;;2.50;;
15831;SDS011;8016;49.928;9.372;2024-01-27T01:58:44;8.90;;;2.60;;
15831;SDS011;8016;49.928;9.372;2024-01-27T02:01:10;10.13;;;2.67;;
15831;SDS011;8016;49.928;9.372;2024-01-27T02:03:36;7.03;;;2.73;;
15831;SDS011;8016;49.928;9.372;2024-01-27T02:06:02;10.63;;;3.07;;
15831;SDS011;8016;49.928;9.372;2024-01-27T02:08:28;5.47;;;2.77;;
15831;SDS011;8016;49.928;9.372;2024-01-27T02:10:54;8.97;;;2.97;;
15831;SDS011;8016;49.928;9.372;2024-01-27T02:13:23;11.00;;;2.30;;
15831;SDS011;8016;49.928;9.372;2024-01-27T02:15:50;11.00;;;3.00;;
15831;SDS011;8016;49.928;9.372;2024-01-27T02:18:16;5.57;;;2.40;;
15831;SDS011;8016;49.928;9.372;2024-01-27T02:20:42;9.40;;;2.80;;
15831;SDS011;8016;49.928;9.372;2024-01-27T02:23:08;7.87;;;2.70;;
15831;SDS011;8016;49.928;9.372;2024-01-27T02:25:35;4.07;;;2.33;;
15831;SDS011;8016;49.928;9.372;2024-01-27T02:28:01;10.00;;;3.17;;
15831;SDS011;8016;49.928;9.372;2024-01-27T02:30:30;8.73;;;2.37;;
15831;SDS011;8016;49.928;9.372;2024-01-27T02:32:56;8.03;;;2.63;;
15831;SDS011;8016;49.928;9.372;2024-01-27T02:35:23;8.33;;;2.63;;
15831;SDS011;8016;49.928;9.372;2024-01-27T02:37:49;8.13;;;2.73;;
15831;SDS011;8016;49.928;9.372;2024-01-27T02:40:15;9.50;;;2.60;;
15831;SDS011;8016;49.928;9.372;2024-01-27T02:42:41;7.97;;;2.03;;
15831;SDS011;8016;49.928;9.372;2024-01-27T02:45:08;9.93;;;3.07;;
15831;SDS011;8016;49.928;9.372;2024-01-27T02:47:34;5.37;;;2.50;;
15831;SDS011;8016;49.928;9.372;2024-01-27T02:50:00;3.77;;;1.97;;
15831;SDS011;8016;49.928;9.372;2024-01-27T02:52:26;8.53;;;3.07;;
15831;SDS011;8016;49.928;9.372;2024-01-27T02:54:53;10.97;;;2.90;;
15831;SDS011;8016;49.928;9.372;2024-01-27T02:57:19;9.20;;;3.13;;
15831;SDS011;8016;49.928;9.372;2024-01-27T02:59:45;8.20;;;3.30;;
15831;SDS011;8016;49.928;9.372;2024-01-27T03:02:11;12.23;;;2.80;;
15831;SDS011;8016;49.928;9.372;2024-01-27T03:04:37;7.37;;;2.67;;
15831;SDS011;8016;49.928;9.372;2024-01-27T03:07:03;23.93;;;17.17;;
15831;SDS011;8016;49.928;9.372;2024-01-27T03:09:29;12.17;;;6.07;;
15831;SDS011;8016;49.928;9.372;2024-01-27T03:11:56;8.17;;;2.70;;
15831;SDS011;8016;49.928;9.372;2024-01-27T03:14:22;13.97;;;3.80;;
15831;SDS011;8016;49.928;9.372;2024-01-27T03:16:48;9.03;;;3.47;;
15831;SDS011;8016;49.928;9.372;2024-01-27T03:19:14;10.53;;;4.17;;
15831;SDS011;8016;49.928;9.372;2024-01-27T03:21:40;8.80;;;3.17;;
15831;SDS011;8016;49.928;9.372;2024-01-27T03:24:06;11.53;;;2.80;;
15831;SDS011;8016;49.928;9.372;2024-01-27T03:26:31;8.20;;;3.00;;
15831;SDS011;8016;49.928;9.372;2024-01-27T03:28:57;8.00;;;3.40;;
15831;SDS011;8016;49.928;9.372;2024-01-27T03:31:23;9.87;;;2.50;;
15831;SDS011;8016;49.928;9.372;2024-01-27T03:33:55;13.00;;;3.80;;
15831;SDS011;8016;49.928;9.372;2024-01-27T03:36:21;10.53;;;3.23;;
15831;SDS011;8016;49.928;9.372;2024-01-27T03:38:47;12.57;;;3.77;;
15831;SDS011;8016;49.928;9.372;2024-01-27T03:41:13;11.33;;;3.77;;
15831;SDS011;8016;49.928;9.372;2024-01-27T03:43:39;9.70;;;3.53;;
15831;SDS011;8016;49.928;9.372;2024-01-27T03:46:05;7.63;;;3.17;;
15831;SDS011;8016;49.928;9.372;2024-01-27T03:48:31;6.90;;;3.13;;
15831;SDS011;8016;49.928;9.372;2024-01-27T03:50:57;8.17;;;3.57;;
15831;SDS011;8016;49.928;9.372;2024-01-27T03:53:23;10.80;;;3.43;;
15831;SDS011;8016;49.928;9.372;2024-01-27T03:55:49;9.37;;;3.23;;
15831;SDS011;8016;49.928;9.372;2024-01-27T03:58:15;11.33;;;4.47;;
15831;SDS011;8016;49.928;9.372;2024-01-27T04:00:41;12.53;;;3.43;;
15831;SDS011;8016;49.928;9.372;2024-01-27T04:03:07;5.30;;;2.87;;
15831;SDS011;8016;49.928;9.372;2024-01-27T04:05:34;13.83;;;3.30;;
15831;SDS011;8016;49.928;9.372;2024-01-27T04:08:01;10.60;;;3.90;;
15831;SDS011;8016;49.928;9.372;2024-01-27T04:10:27;10.90;;;3.60;;
15831;SDS011;8016;49.928;9.372;2024-01-27T04:12:53;9.90;;;3.33;;
15831;SDS011;8016;49.928;9.372;2024-01-27T04:15:19;5.13;;;2.67;;
15831;SDS011;8016;49.928;9.372;2024-01-27T04:17:45;6.90;;;3.40;;
15831;SDS011;8016;49.928;9.372;2024-01-27T04:20:11;11.60;;;4.37;;
15831;SDS011;8016;49.928;9.372;2024-01-27T04:22:37;9.50;;;3.30;;
15831;SDS011;8016;49.928;9.372;2024-01-27T04:25:03;10.30;;;3.80;;
15831;SDS011;8016;49.928;9.372;2024-01-27T04:27:29;8.97;;;3.83;;
15831;SDS011;8016;49.928;9.372;2024-01-27T04:29:55;9.37;;;3.07;;
15831;SDS011;8016;49.928;9.372;2024-01-27T04:32:22;7.27;;;3.10;;
15831;SDS011;8016;49.928;9.372;2024-01-27T04:34:48;8.50;;;3.13;;
15831;SDS011;8016;49.928;9.372;2024-01-27T04:37:14;7.13;;;3.23;;
15831;SDS011;8016;49.928;9.372;2024-01-27T04:39:40;15.63;;;3.50;;
15831;SDS011;8016;49.928;9.372;2024-01-27T04:42:06;8.13;;;3.40;;
15831;SDS011;8016;49.928;9.372;2024-01-27T04:44:32;8.17;;;3.93;;
15831;SDS011;8016;49.928;9.372;2024-01-27T04:46:59;5.67;;;3.47;;
15831;SDS011;8016;49.928;9.372;2024-01-27T04:49:25;7.77;;;3.77;;
15831;SDS011;8016;49.928;9.372;2024-01-27T04:51:51;6.23;;;3.23;;
15831;SDS011;8016;49.928;9.372;2024-01-27T04:54:17;9.30;;;3.77;;
15831;SDS011;8016;49.928;9.372;2024-01-27T04:56:43;10.27;;;3.13;;
15831;SDS011;8016;49.928;9.372;2024-01-27T04:59:09;8.47;;;3.90;;
15831;SDS011;8016;49.928;9.372;2024-01-27T05:01:35;11.57;;;4.27;;
15831;SDS011;8016;49.928;9.372;2024-01-27T05:04:01;7.30;;;3.67;;
15831;SDS011;8016;49.928;9.372;2024-01-27T05:06:27;12.70;;;3.80;;
15831;SDS011;8016;49.928;9.372;2024-01-27T05:08:53;9.87;;;3.80;;
15831;SDS011;8016;49.928;9.372;2024-01-27T05:11:25;11.97;;;3.47;;
15831;SDS011;8016;49.928;9.372;2024-01-27T05:13:51;8.10;;;3.93;;
15831;SDS011;8016;49.928;9.372;2024-01-27T05:16:17;10.50;;;4.03;;
15831;SDS011;8016;49.928;9.372;2024-01-27T05:18:43;8.17;;;3.47;;
15831;SDS011;8016;49.928;9.372;2024-01-27T05:21:09;9.90;;;3.03;;
15831;SDS011;8016;49.928;9.372;2024-01-27T05:23:35;5.97;;;3.33;;
15831;SDS011;8016;49.928;9.372;2024-01-27T05:26:01;8.30;;;3.40;;
15831;SDS011;8016;49.928;9.372;2024-01-27T05:28:27;8.70;;;4.20;;
15831;SDS011;8016;49.928;9.372;2024-01-27T05:30:53;9.40;;;3.47;;
15831;SDS011;8016;49.928;9.372;2024-01-27T05:33:19;10.07;;;3.80;;
15831;SDS011;8016;49.928;9.372;2024-01-27T05:35:45;10.80;;;3.77;;
15831;SDS011;8016;49.928;9.372;2024-01-27T05:38:11;9.40;;;3.33;;
15831;SDS011;8016;49.928;9.372;2024-01-27T05:40:37;10.43;;;4.47;;
15831;SDS011;8016;49.928;9.372;2024-01-27T05:43:03;7.37;;;3.27;;
15831;SDS011;8016;49.928;9.372;2024-01-27T05:45:29;11.70;;;3.70;;
15831;SDS011;8016;49.928;9.372;2024-01-27T05:47:56;11.97;;;3.60;;
15831;SDS011;8016;49.928;9.372;2024-01-27T05:50:22;11.70;;;4.17;;
15831;SDS011;8016;49.928;9.372;2024-01-27T05:52:48;12.03;;;3.50;;
15831;SDS011;8016;49.928;9.372;2024-01-27T05:55:14;13.87;;;4.80;;
15831;SDS011;8016;49.928;9.372;2024-01-27T05:57:41;9.60;;;3.50;;
15831;SDS011;8016;49.928;9.372;2024-01-27T06:00:07;8.67;;;3.87;;
15831;SDS011;8016;49.928;9.372;2024-01-27T06:02:34;10.00;;;5.20;;
15831;SDS011;8016;49.928;9.372;2024-01-27T06:05:01;13.80;;;5.50;;
15831;SDS011;8016;49.928;9.372;2024-01-27T06:07:27;8.70;;;4.90;;
15831;SDS011;8016;49.928;9.372;2024-01-27T06:09:53;9.87;;;4.60;;
15831;SDS011;8016;49.928;9.372;2024-01-27T06:12:19;15.07;;;6.10;;
15831;SDS011;8016;49.928;9.372;2024-01-27T06:14:45;9.40;;;5.20;;
15831;SDS011;8016;49.928;9.372;2024-01-27T06:17:11;11.90;;;4.03;;
15831;SDS011;8016;49.928;9.372;2024-01-27T06:19:39;13.40;;;4.40;;
15831;SDS011;8016;49.928;9.372;2024-01-27T06:22:05;13.33;;;5.37;;
15831;SDS011;8016;49.928;9.372;2024-01-27T06:24:31;10.33;;;3.87;;
15831;SDS011;8016;49.928;9.372;2024-01-27T06:26:57;11.00;;;4.60;;
15831;SDS011;8016;49.928;9.372;2024-01-27T06:29:23;11.20;;;4.77;;
15831;SDS011;8016;49.928;9.372;2024-01-27T06:31:51;11.67;;;4.40;;
15831;SDS011;8016;49.928;9.372;2024-01-27T06:34:18;10.23;;;3.73;;
15831;SDS011;8016;49.928;9.372;2024-01-27T06:36:44;19.90;;;5.67;;
15831;SDS011;8016;49.928;9.372;2024-01-27T06:39:10;59.20;;;23.83;;
15831;SDS011;8016;49.928;9.372;2024-01-27T06:41:36;17.80;;;6.83;;
15831;SDS011;8016;49.928;9.372;2024-01-27T06:44:02;8.67;;;4.50;;
15831;SDS011;8016;49.928;9.372;2024-01-27T06:46:29;10.20;;;3.67;;
15831;SDS011;8016;49.928;9.372;2024-01-27T06:48:54;11.30;;;4.57;;
15831;SDS011;8016;49.928;9.372;2024-01-27T06:51:20;10.97;;;4.33;;
15831;SDS011;8016;49.928;9.372;2024-01-27T06:53:46;9.80;;;4.43;;
15831;SDS011;8016;49.928;9.372;2024-01-27T06:56:13;10.23;;;4.10;;
15831;SDS011;8016;49.928;9.372;2024-01-27T06:58:39;12.60;;;4.50;;
15831;SDS011;8016;49.928;9.372;2024-01-27T07:01:06;7.63;;;4.30;;
15831;SDS011;8016;49.928;9.372;2024-01-27T07:03:32;13.87;;;6.27;;
15831;SDS011;8016;49.928;9.372;2024-01-27T07:05:58;12.27;;;6.30;;
15831;SDS011;8016;49.928;9.372;2024-01-27T07:08:26;14.30;;;7.70;;
15831;SDS011;8016;49.928;9.372;2024-01-27T07:10:52;21.37;;;9.90;;
15831;SDS011;8016;49.928;9.372;2024-01-27T07:13:18;47.43;;;27.90;;
15831;SDS011;8016;49.928;9.372;2024-01-27T07:15:44;21.10;;;12.40;;
15831;SDS011;8016;49.928;9.372;2024-01-27T07:18:10;25.07;;;13.67;;
15831;SDS011;8016;49.928;9.372;2024-01-27T07:20:36;13.80;;;5.43;;
15831;SDS011;8016;49.928;9.372;2024-01-27T07:23:02;18.90;;;10.03;;
15831;SDS011;8016;49.928;9.372;2024-01-27T07:25:28;17.87;;;9.73;;
15831;SDS011;8016;49.928;9.372;2024-01-27T07:27:54;16.67;;;9.37;;
15831;SDS011;8016;49.928;9.372;2024-01-27T07:30:20;18.60;;;9.07;;
15831;SDS011;8016;49.928;9.372;2024-01-27T07:32:46;22.23;;;9.43;;
15831;SDS011;8016;49.928;9.372;2024-01-27T07:35:12;18.40;;;8.70;;
15831;SDS011;8016;49.928;9.372;2024-01-27T07:37:38;18.23;;;8.50;;
15831;SDS011;8016;49.928;9.372;2024-01-27T07:40:05;19.97;;;8.93;;
15831;SDS011;8016;49.928;9.372;2024-01-27T07:42:31;15.50;;;9.37;;
15831;SDS011;8016;49.928;9.372;2024-01-27T07:44:57;21.17;;;9.80;;
15831;SDS011;8016;49.928;9.372;2024-01-27T07:47:23;22.47;;;10.00;;
15831;SDS011;8016;49.928;9.372;2024-01-27T07:49:49;18.40;;;9.13;;
15831;SDS011;8016;49.928;9.372;2024-01-27T07:52:15;15.93;;;9.30;;
15831;SDS011;8016;49.928;9.372;2024-01-27T07:54:41;24.63;;;9.33;;
15831;SDS011;8016;49.928;9.372;2024-01-27T07:57:07;22.67;;;9.50;;
15831;SDS011;8016;49.928;9.372;2024-01-27T07:59:33;16.20;;;7.90;;
15831;SDS011;8016;49.928;9.372;2024-01-27T08:01:59;14.33;;;8.93;;
15831;SDS011;8016;49.928;9.372;2024-01-27T08:04:25;11.63;;;7.40;;
15831;SDS011;8016;49.928;9.372;2024-01-27T08:06:51;17.00;;;9.32;;
15831;SDS011;8016;49.928;9.372;2024-01-27T08:09:17;15.33;;;10.07;;
15831;SDS011;8016;49.928;9.372;2024-01-27T08:11:44;17.67;;;10.57;;
15831;SDS011;8016;49.928;9.372;2024-01-27T08:14:10;22.23;;;11.80;;
15831;SDS011;8016;49.928;9.372;2024-01-27T08:16:37;17.00;;;11.40;;
15831;SDS011;8016;49.928;9.372;2024-01-27T08:19:03;23.90;;;13.30;;
15831;SDS011;8016;49.928;9.372;2024-01-27T08:21:29;44.97;;;21.73;;
15831;SDS011;8016;49.928;9.372;2024-01-27T08:23:55;23.43;;;13.43;;
15831;SDS011;8016;49.928;9.372;2024-01-27T08:26:21;29.13;;;15.13;;
15831;SDS011;8016;49.928;9.372;2024-01-27T08:28:47;35.03;;;17.67;;
15831;SDS011;8016;49.928;9.372;2024-01-27T08:31:14;37.33;;;21.30;;
15831;SDS011;8016;49.928;9.372;2024-01-27T08:33:40;33.10;;;19.93;;
15831;SDS011;8016;49.928;9.372;2024-01-27T08:36:06;28.70;;;19.47;;
15831;SDS011;8016;49.928;9.372;2024-01-27T08:38:32;31.93;;;20.47;;
15831;SDS011;8016;49.928;9.372;2024-01-27T08:40:58;31.37;;;21.00;;
15831;SDS011;8016;49.928;9.372;2024-01-27T08:43:24;35.40;;;21.97;;
15831;SDS011;8016;49.928;9.372;2024-01-27T08:45:50;29.37;;;21.00;;
15831;SDS011;8016;49.928;9.372;2024-01-27T08:48:16;32.27;;;18.50;;
15831;SDS011;8016;49.928;9.372;2024-01-27T08:50:42;25.77;;;14.53;;
15831;SDS011;8016;49.928;9.372;2024-01-27T08:53:08;21.50;;;13.23;;
15831;SDS011;8016;49.928;9.372;2024-01-27T08:55:34;81.20;;;31.73;;
15831;SDS011;8016;49.928;9.372;2024-01-27T08:58:00;47.07;;;17.97;;
15831;SDS011;8016;49.928;9.372;2024-01-27T09:00:26;29.97;;;14.33;;
15831;SDS011;8016;49.928;9.372;2024-01-27T09:02:52;33.00;;;13.13;;
15831;SDS011;8016;49.928;9.372;2024-01-27T09:05:18;25.93;;;11.90;;
15831;SDS011;8016;49.928;9.372;2024-01-27T09:07:44;26.33;;;10.07;;
15831;SDS011;8016;49.928;9.372;2024-01-27T09:10:10;19.67;;;8.07;;
15831;SDS011;8016;49.928;9.372;2024-01-27T09:12:39;16.17;;;7.60;;
15831;SDS011;8016;49.928;9.372;2024-01-27T09:15:05;20.80;;;9.23;;
15831;SDS011;8016;49.928;9.372;2024-01-27T09:17:32;18.47;;;6.90;;
15831;SDS011;8016;49.928;9.372;2024-01-27T09:19:58;15.37;;;6.63;;
15831;SDS011;8016;49.928;9.372;2024-01-27T09:22:24;12.57;;;5.63;;
15831;SDS011;8016;49.928;9.372;2024-01-27T09:24:50;16.63;;;7.07;;
15831;SDS011;8016;49.928;9.372;2024-01-27T09:27:17;13.30;;;5.17;;
15831;SDS011;8016;49.928;9.372;2024-01-27T09:29:43;11.77;;;6.10;;
15831;SDS011;8016;49.928;9.372;2024-01-27T09:32:09;12.60;;;6.17;;
15831;SDS011;8016;49.928;9.372;2024-01-27T09:34:35;58.53;;;36.07;;
15831;SDS011;8016;49.928;9.372;2024-01-27T09:37:01;31.93;;;20.53;;
15831;SDS011;8016;49.928;9.372;2024-01-27T09:39:27;40.10;;;26.37;;
15831;SDS011;8016;49.928;9.372;2024-01-27T09:41:53;45.42;;;28.45;;
15831;SDS011;8016;49.928;9.372;2024-01-27T09:44:20;21.77;;;10.37;;
15831;SDS011;8016;49.928;9.372;2024-01-27T09:46:47;15.50;;;6.13;;
15831;SDS011;8016;49.928;9.372;2024-01-27T09:49:13;14.20;;;3.90;;
15831;SDS011;8016;49.928;9.372;2024-01-27T09:51:42;12.07;;;3.07;;
15831;SDS011;8016;49.928;9.372;2024-01-27T09:54:08;9.80;;;2.90;;
15831;SDS011;8016;49.928;9.372;2024-01-27T09:56:34;13.23;;;3.00;;
15831;SDS011;8016;49.928;9.372;2024-01-27T09:59:00;11.67;;;3.07;;
15831;SDS011;8016;49.928;9.372;2024-01-27T10:01:27;11.90;;;2.87;;
15831;SDS011;8016;49.928;9.372;2024-01-27T10:03:54;8.90;;;3.07;;
15831;SDS011;8016;49.928;9.372;2024-01-27T10:06:20;11.83;;;3.07;;
15831;SDS011;8016;49.928;9.372;2024-01-27T10:08:53;13.80;;;4.53;;
15831;SDS011;8016;49.928;9.372;2024-01-27T10:11:20;15.10;;;3.47;;
15831;SDS011;8016;49.928;9.372;2024-01-27T10:13:53;7.63;;;2.80;;
15831;SDS011;8016;49.928;9.372;2024-01-27T10:16:23;10.30;;;3.63;;
15831;SDS011;8016;49.928;9.372;2024-01-27T10:18:58;8.27;;;3.33;;
15831;SDS011;8016;49.928;9.372;2024-01-27T10:21:24;12.10;;;3.60;;
15831;SDS011;8016;49.928;9.372;2024-01-27T10:23:51;11.57;;;3.43;;
15831;SDS011;8016;49.928;9.372;2024-01-27T10:26:17;14.03;;;4.10;;
15831;SDS011;8016;49.928;9.372;2024-01-27T10:28:52;9.80;;;3.60;;
15831;SDS011;8016;49.928;9.372;2024-01-27T10:31:18;15.53;;;4.43;;
15831;SDS011;8016;49.928;9.372;2024-01-27T10:33:51;14.00;;;3.37;;
15831;SDS011;8016;49.928;9.372;2024-01-27T10:36:21;14.13;;;3.43;;
15831;SDS011;8016;49.928;9.372;2024-01-27T10:38:47;12.50;;;3.47;;
15831;SDS011;8016;49.928;9.372;2024-01-27T10:41:14;28.53;;;11.57;;
15831;SDS011;8016;49.928;9.372;2024-01-27T10:43:45;17.20;;;4.13;;
15831;SDS011;8016;49.928;9.372;2024-01-27T10:46:11;15.63;;;4.40;;
15831;SDS011;8016;49.928;9.372;2024-01-27T10:48:39;10.47;;;4.03;;
15831;SDS011;8016;49.928;9.372;2024-01-27T10:51:07;13.47;;;4.43;;
15831;SDS011;8016;49.928;9.372;2024-01-27T10:53:34;17.70;;;4.53;;
15831;SDS011;8016;49.928;9.372;2024-01-27T10:56:02;12.07;;;5.70;;
15831;SDS011;8016;49.928;9.372;2024-01-27T10:58:32;10.63;;;4.20;;
15831;SDS011;8016;49.928;9.372;2024-01-27T11:01:05;12.53;;;3.70;;
15831;SDS011;8016;49.928;9.372;2024-01-27T11:03:33;14.27;;;5.23;;
15831;SDS011;8016;49.928;9.372;2024-01-27T11:05:59;15.33;;;3.93;;
15831;SDS011;8016;49.928;9.372;2024-01-27T11:08:25;8.10;;;3.67;;
15831;SDS011;8016;49.928;9.372;2024-01-27T11:10:52;11.70;;;3.73;;
15831;SDS011;8016;49.928;9.372;2024-01-27T11:13:19;10.03;;;4.40;;
15831;SDS011;8016;49.928;9.372;2024-01-27T11:15:52;15.47;;;4.90;;
15831;SDS011;8016;49.928;9.372;2024-01-27T11:18:18;9.43;;;3.63;;
15831;SDS011;8016;49.928;9.372;2024-01-27T11:20:44;11.30;;;3.67;;
15831;SDS011;8016;49.928;9.372;2024-01-27T11:23:12;9.23;;;3.77;;
15831;SDS011;8016;49.928;9.372;2024-01-27T11:25:39;83.80;;;47.03;;
15831;SDS011;8016;49.928;9.372;2024-01-27T11:28:11;18.47;;;9.23;;
15831;SDS011;8016;49.928;9.372;2024-01-27T11:30:39;16.50;;;6.53;;
15831;SDS011;8016;49.928;9.372;2024-01-27T11:33:05;18.20;;;7.90;;
15831;SDS011;8016;49.928;9.372;2024-01-27T11:35:31;13.33;;;5.00;;
15831;SDS011;8016;49.928;9.372;2024-01-27T11:37:57;12.13;;;4.40;;
15831;SDS011;8016;49.928;9.372;2024-01-27T11:40:23;9.10;;;3.57;;
15831;SDS011;8016;49.928;9.372;2024-01-27T11:42:59;11.87;;;3.60;;
15831;SDS011;8016;49.928;9.372;2024-01-27T11:45:25;15.27;;;4.20;;
15831;SDS011;8016;49.928;9.372;2024-01-27T11:47:53;8.10;;;3.57;;
15831;SDS011;8016;49.928;9.372;2024-01-27T11:50:20;12.70;;;2.73;;
15831;SDS011;8016;49.928;9.372;2024-01-27T11:52:46;12.23;;;3.80;;
15831;SDS011;8016;49.928;9.372;2024-01-27T11:55:12;12.23;;;3.40;;
15831;SDS011;8016;49.928;9.372;2024-01-27T11:57:40;11.03;;;3.83;;
15831;SDS011;8016;49.928;9.372;2024-01-27T12:00:06;8.93;;;3.07;;
15831;SDS011;8016;49.928;9.372;2024-01-27T12:02:34;9.30;;;3.00;;
15831;SDS011;8016;49.928;9.372;2024-01-27T12:05:00;10.30;;;2.50;;
15831;SDS011;8016;49.928;9.372;2024-01-27T12:07:26;8.63;;;2.20;;
15831;SDS011;8016;49.928;9.372;2024-01-27T12:09:52;8.23;;;3.00;;
15831;SDS011;8016;49.928;9.372;2024-01-27T12:12:19;11.77;;;3.27;;
15831;SDS011;8016;49.928;9.372;2024-01-27T12:14:46;11.03;;;3.17;;
15831;SDS011;8016;49.928;9.372;2024-01-27T12:17:12;9.57;;;3.00;;
15831;SDS011;8016;49.928;9.372;2024-01-27T12:19:38;15.40;;;3.00;;
15831;SDS011;8016;49.928;9.372;2024-01-27T12:22:05;9.83;;;2.97;;
15831;SDS011;8016;49.928;9.372;2024-01-27T12:24:46;11.30;;;2.60;;
15831;SDS011;8016;49.928;9.372;2024-01-27T12:27:12;12.47;;;3.23;;
15831;SDS011;8016;49.928;9.372;2024-01-27T12:29:40;13.17;;;3.10;;
15831;SDS011;8016;49.928;9.372;2024-01-27T12:32:06;9.23;;;3.40;;
15831;SDS011;8016;49.928;9.372;2024-01-27T12:34:32;7.00;;;2.87;;
15831;SDS011;8016;49.928;9.372;2024-01-27T12:36:58;8.63;;;2.37;;
15831;SDS011;8016;49.928;9.372;2024-01-27T12:39:25;14.00;;;3.47;;
15831;SDS011;8016;49.928;9.372;2024-01-27T12:41:51;12.17;;;3.40;;
15831;SDS011;8016;49.928;9.372;2024-01-27T12:44:17;9.63;;;2.60;;
15831;SDS011;8016;49.928;9.372;2024-01-27T12:46:43;7.03;;;2.90;;
15831;SDS011;8016;49.928;9.372;2024-01-27T12:49:09;8.53;;;2.53;;
15831;SDS011;8016;49.928;9.372;2024-01-27T12:51:35;6.07;;;2.77;;
15831;SDS011;8016;49.928;9.372;2024-01-27T12:54:01;7.07;;;3.10;;
15831;SDS011;8016;49.928;9.372;2024-01-27T12:56:27;12.27;;;2.70;;
15831;SDS011;8016;49.928;9.372;2024-01-27T12:58:53;7.57;;;2.47;;
15831;SDS011;8016;49.928;9.372;2024-01-27T13:01:19;9.00;;;3.60;;
15831;SDS011;8016;49.928;9.372;2024-01-27T13:03:45;14.80;;;4.03;;
15831;SDS011;8016;49.928;9.372;2024-01-27T13:06:11;10.73;;;3.93;;
15831;SDS011;8016;49.928;9.372;2024-01-27T13:08:37;11.33;;;4.10;;
15831;SDS011;8016;49.928;9.372;2024-01-27T13:11:04;11.60;;;2.70;;
15831;SDS011;8016;49.928;9.372;2024-01-27T13:13:30;17.10;;;3.07;;
15831;SDS011;8016;49.928;9.372;2024-01-27T13:15:56;9.33;;;3.00;;
15831;SDS011;8016;49.928;9.372;2024-01-27T13:18:22;11.43;;;2.80;;
15831;SDS011;8016;49.928;9.372;2024-01-27T13:20:47;32.97;;;15.37;;
15831;SDS011;8016;49.928;9.372;2024-01-27T13:23:13;13.37;;;3.73;;
15831;SDS011;8016;49.928;9.372;2024-01-27T13:25:39;12.73;;;3.93;;
15831;SDS011;8016;49.928;9.372;2024-01-27T13:28:06;10.03;;;4.20;;
15831;SDS011;8016;49.928;9.372;2024-01-27T13:30:36;16.37;;;3.80;;
15831;SDS011;8016;49.928;9.372;2024-01-27T13:33:02;12.57;;;4.60;;
15831;SDS011;8016;49.928;9.372;2024-01-27T13:35:28;24.47;;;10.97;;
15831;SDS011;8016;49.928;9.372;2024-01-27T13:37:54;14.03;;;4.93;;
15831;SDS011;8016;49.928;9.372;2024-01-27T13:40:20;11.80;;;3.30;;
15831;SDS011;8016;49.928;9.372;2024-01-27T13:42:46;20.93;;;7.00;;
15831;SDS011;8016;49.928;9.372;2024-01-27T13:45:12;12.17;;;3.90;;
15831;SDS011;8016;49.928;9.372;2024-01-27T13:47:38;11.50;;;3.17;;
15831;SDS011;8016;49.928;9.372;2024-01-27T13:50:04;15.27;;;8.40;;
15831;SDS011;8016;49.928;9.372;2024-01-27T13:52:31;13.57;;;4.27;;
15831;SDS011;8016;49.928;9.372;2024-01-27T13:54:57;10.67;;;3.90;;
15831;SDS011;8016;49.928;9.372;2024-01-27T13:57:23;9.93;;;3.53;;
15831;SDS011;8016;49.928;9.372;2024-01-27T13:59:49;8.63;;;3.47;;
15831;SDS011;8016;49.928;9.372;2024-01-27T14:02:15;6.80;;;2.63;;
15831;SDS011;8016;49.928;9.372;2024-01-27T14:04:41;7.97;;;2.87;;
15831;SDS011;8016;49.928;9.372;2024-01-27T14:07:07;9.13;;;3.30;;
15831;SDS011;8016;49.928;9.372;2024-01-27T14:09:34;9.77;;;2.37;;
15831;SDS011;8016;49.928;9.372;2024-01-27T14:12:00;11.97;;;3.43;;
15831;SDS011;8016;49.928;9.372;2024-01-27T14:14:26;11.60;;;3.40;;
15831;SDS011;8016;49.928;9.372;2024-01-27T14:16:53;9.90;;;2.80;;
15831;SDS011;8016;49.928;9.372;2024-01-27T14:19:19;9.03;;;2.57;;
15831;SDS011;8016;49.928;9.372;2024-01-27T14:21:45;9.77;;;2.80;;
15831;SDS011;8016;49.928;9.372;2024-01-27T14:24:11;7.73;;;2.97;;
15831;SDS011;8016;49.928;9.372;2024-01-27T14:26:37;11.13;;;2.70;;
15831;SDS011;8016;49.928;9.372;2024-01-27T14:29:04;11.73;;;2.50;;
15831;SDS011;8016;49.928;9.372;2024-01-27T14:31:30;8.87;;;2.30;;
15831;SDS011;8016;49.928;9.372;2024-01-27T14:33:56;7.00;;;3.20;;
15831;SDS011;8016;49.928;9.372;2024-01-27T14:36:23;7.80;;;3.80;;
15831;SDS011;8016;49.928;9.372;2024-01-27T14:38:49;8.20;;;3.43;;
15831;SDS011;8016;49.928;9.372;2024-01-27T14:41:15;7.77;;;2.67;;
15831;SDS011;8016;49.928;9.372;2024-01-27T14:43:41;10.93;;;5.47;;
15831;SDS011;8016;49.928;9.372;2024-01-27T14:46:07;10.63;;;2.83;;
15831;SDS011;8016;49.928;9.372;2024-01-27T14:48:33;10.83;;;3.60;;